Tomstown, Pennsylvania
Current Conditions -  °F | °C
As of 12:53 PM on Sunday 21 Dec 2014 (Local Time) from KRYT Reporting Station
Clear Clear  
Wind Chill: 31°   Ceiling: Unl
Heat Index: 36°   Visibility: 10mi
Dew Point: 21°   Wind: 6mph
Humidity: 55%   Direction: 280°W
Pressure: 30.26"   Gusts: NA
Location:  39.7777°N, 77.5693°W
Report Text: KRYT 211753Z AUTO 28005KT 10SM CLR 02/M06 A3026 RMK AO2 SLP264 T00221061 10028 21028 58014 $
Loading
Personal Weather Stations






























Interactive Weather Map New forecast layout! Learn more

10-Day Weather Forecast

Advertisements
Track Severe Weather on mobile